createdAt,value
2022-12-29T00:00:13.172Z,38.29
2022-12-29T00:01:13.230Z,38.14
2022-12-29T00:02:13.237Z,41.34
2022-12-29T00:03:13.244Z,38.05
2022-12-29T00:04:14.955Z,34.63
2022-12-29T00:05:13.151Z,34.99
2022-12-29T00:06:13.144Z,35.73
2022-12-29T00:07:13.147Z,34.91
2022-12-29T00:08:13.148Z,34.44
2022-12-29T00:09:13.122Z,36.65
2022-12-29T00:10:13.126Z,34.71
2022-12-29T00:11:13.119Z,37.01
2022-12-29T00:12:13.104Z,37.04
2022-12-29T00:13:13.101Z,34.07
2022-12-29T00:14:13.101Z,36.78
2022-12-29T00:15:13.076Z,37.36
2022-12-29T00:16:13.150Z,37.30
2022-12-29T00:17:13.076Z,37.46
2022-12-29T00:18:13.078Z,34.40
2022-12-29T00:19:13.055Z,37.66
2022-12-29T00:20:13.045Z,34.60
2022-12-29T00:21:13.042Z,36.06
2022-12-29T00:22:13.042Z,33.96
2022-12-29T00:23:13.015Z,35.34
2022-12-29T00:24:13.012Z,36.71
2022-12-29T00:25:12.998Z,36.85
2022-12-29T00:26:12.988Z,36.35
2022-12-29T00:27:12.983Z,33.90
2022-12-29T00:28:12.983Z,35.66
2022-12-29T00:29:12.955Z,37.05
2022-12-29T00:30:12.955Z,38.15
2022-12-29T00:31:13.009Z,34.26
2022-12-29T00:32:12.932Z,37.11
2022-12-29T00:33:12.924Z,36.84
2022-12-29T00:34:12.929Z,35.59
2022-12-29T00:35:12.911Z,34.47
2022-12-29T00:36:12.901Z,29.97
2022-12-29T00:37:12.887Z,30.99
2022-12-29T00:38:12.876Z,34.93
2022-12-29T00:39:12.876Z,35.73
2022-12-29T00:40:12.872Z,33.36
2022-12-29T00:41:12.866Z,34.31
2022-12-29T00:42:12.857Z,35.80
2022-12-29T00:43:12.856Z,36.59
2022-12-29T00:44:12.867Z,27.47
2022-12-29T00:45:12.835Z,30.88
2022-12-29T00:46:19.478Z,28.95
2022-12-29T00:47:13.907Z,29.19
2022-12-29T00:48:12.820Z,29.27
2022-12-29T00:49:12.810Z,31.60
2022-12-29T00:50:12.814Z,31.48
2022-12-29T00:51:12.806Z,33.80
2022-12-29T00:52:12.813Z,37.63
2022-12-29T00:53:12.801Z,34.26
2022-12-29T00:54:12.781Z,34.17
2022-12-29T00:55:12.799Z,34.29
2022-12-29T00:56:12.777Z,34.23
2022-12-29T00:57:12.770Z,35.92
2022-12-29T00:58:12.774Z,34.52
2022-12-29T00:59:12.764Z,34.98
2022-12-29T01:00:12.744Z,31.04
2022-12-29T01:01:12.791Z,34.98
2022-12-29T01:02:12.918Z,31.09
2022-12-29T01:03:12.791Z,29.63
2022-12-29T01:04:12.724Z,30.68
2022-12-29T01:05:12.721Z,29.36
2022-12-29T01:06:12.735Z,31.26
2022-12-29T01:07:12.703Z,32.80
2022-12-29T01:08:12.719Z,33.18
2022-12-29T01:09:12.714Z,31.53
2022-12-29T01:10:12.720Z,32.70
2022-12-29T01:11:12.694Z,29.89
2022-12-29T01:12:12.707Z,32.92
2022-12-29T01:13:12.688Z,31.94
2022-12-29T01:14:12.685Z,29.05
2022-12-29T01:15:12.692Z,31.19
2022-12-29T01:16:12.792Z,28.29
2022-12-29T01:17:12.699Z,34.21
2022-12-29T01:18:12.685Z,34.73
2022-12-29T01:19:12.674Z,28.50
2022-12-29T01:20:12.713Z,31.60
2022-12-29T01:21:12.666Z,31.13
2022-12-29T01:22:12.663Z,32.81
2022-12-29T01:23:12.670Z,29.34
2022-12-29T01:24:12.647Z,29.68
2022-12-29T01:25:12.643Z,34.29
2022-12-29T01:26:12.634Z,30.87
2022-12-29T01:27:12.641Z,29.42
2022-12-29T01:28:12.619Z,29.15
2022-12-29T01:29:12.624Z,28.62
2022-12-29T01:30:12.613Z,27.11
2022-12-29T01:31:12.636Z,26.57
2022-12-29T01:32:12.603Z,26.36
2022-12-29T01:33:12.584Z,26.23
2022-12-29T01:34:12.634Z,29.76
2022-12-29T01:35:12.578Z,28.65
2022-12-29T01:36:12.585Z,30.75
2022-12-29T01:37:12.552Z,27.31
2022-12-29T01:38:12.550Z,29.00
2022-12-29T01:39:12.571Z,28.90
2022-12-29T01:40:12.554Z,31.94
2022-12-29T01:41:12.545Z,26.34
2022-12-29T01:42:12.542Z,30.11
2022-12-29T01:43:12.529Z,28.43
2022-12-29T01:44:12.529Z,34.44
2022-12-29T01:45:12.525Z,28.93
2022-12-29T01:46:12.556Z,30.78
2022-12-29T01:47:12.528Z,28.89
2022-12-29T01:48:12.515Z,28.65
2022-12-29T01:49:12.504Z,30.26
2022-12-29T01:50:12.534Z,29.82
2022-12-29T01:51:12.472Z,29.94
2022-12-29T01:52:12.473Z,30.49
2022-12-29T01:53:12.481Z,31.31
2022-12-29T01:54:12.480Z,30.48
2022-12-29T01:55:12.477Z,33.63
2022-12-29T01:56:12.464Z,29.09
2022-12-29T01:57:12.463Z,32.92
2022-12-29T01:58:12.468Z,27.40
2022-12-29T01:59:12.450Z,32.72
2022-12-29T02:00:12.451Z,31.07
2022-12-29T02:01:12.470Z,28.39
2022-12-29T02:02:12.559Z,29.79
2022-12-29T02:03:12.491Z,30.84
2022-12-29T02:04:12.427Z,28.96
2022-12-29T02:05:12.437Z,26.25
2022-12-29T02:06:12.434Z,26.62
2022-12-29T02:07:12.433Z,32.96
2022-12-29T02:08:12.430Z,32.70
2022-12-29T02:09:12.464Z,33.46
2022-12-29T02:10:12.440Z,34.22
2022-12-29T02:11:12.425Z,27.49
2022-12-29T02:12:12.434Z,30.04
2022-12-29T02:13:12.416Z,30.36
2022-12-29T02:14:12.419Z,31.87
2022-12-29T02:15:12.413Z,34.48
2022-12-29T02:16:12.458Z,34.67
2022-12-29T02:17:12.449Z,33.55
2022-12-29T02:18:12.415Z,36.92
2022-12-29T02:19:12.424Z,35.22
2022-12-29T02:20:12.419Z,34.33
2022-12-29T02:21:12.400Z,33.79
2022-12-29T02:22:12.401Z,31.52
2022-12-29T02:23:12.395Z,39.46
2022-12-29T02:24:12.398Z,36.09
2022-12-29T02:25:12.403Z,33.32
2022-12-29T02:26:12.400Z,35.68
2022-12-29T02:27:12.398Z,33.32
2022-12-29T02:28:12.389Z,37.62
2022-12-29T02:29:12.388Z,36.02
2022-12-29T02:30:12.382Z,35.50
2022-12-29T02:31:12.460Z,30.23
2022-12-29T02:32:12.448Z,31.22
2022-12-29T02:33:12.384Z,34.44
2022-12-29T02:34:12.360Z,33.13
2022-12-29T02:35:12.369Z,36.21
2022-12-29T02:36:12.347Z,34.17
2022-12-29T02:37:12.352Z,30.44
2022-12-29T02:38:12.343Z,32.26
2022-12-29T02:39:12.348Z,35.45
2022-12-29T02:40:12.343Z,33.11
2022-12-29T02:41:12.345Z,35.03
2022-12-29T02:42:12.339Z,34.32
2022-12-29T02:43:12.346Z,35.55
2022-12-29T02:44:12.324Z,36.44
2022-12-29T02:45:12.332Z,34.37
2022-12-29T02:46:12.394Z,35.20
2022-12-29T02:47:12.352Z,32.81
2022-12-29T02:48:12.325Z,33.07
2022-12-29T02:49:12.327Z,36.15
2022-12-29T02:50:12.296Z,33.88
2022-12-29T02:51:12.308Z,31.28
2022-12-29T02:52:12.290Z,34.21
2022-12-29T02:53:12.302Z,31.62
2022-12-29T02:54:12.291Z,28.84
2022-12-29T02:55:12.279Z,32.32
2022-12-29T02:56:12.270Z,29.52
2022-12-29T02:57:12.279Z,26.93
2022-12-29T02:58:12.271Z,28.15
2022-12-29T02:59:12.267Z,25.41
2022-12-29T03:00:12.279Z,31.85
2022-12-29T03:01:12.311Z,28.83
2022-12-29T03:02:12.416Z,33.22
2022-12-29T03:03:12.309Z,33.37
2022-12-29T03:04:12.253Z,32.47
2022-12-29T03:05:12.249Z,30.68
2022-12-29T03:06:12.241Z,33.86
2022-12-29T03:07:12.240Z,32.85
2022-12-29T03:08:12.241Z,31.10
2022-12-29T03:09:19.029Z,34.29
2022-12-29T03:10:13.239Z,34.46
2022-12-29T03:11:12.225Z,33.06
2022-12-29T03:12:12.241Z,34.89
2022-12-29T03:13:12.215Z,31.14
2022-12-29T03:14:12.216Z,33.32
2022-12-29T03:15:12.237Z,32.82
2022-12-29T03:16:12.228Z,32.85
2022-12-29T03:17:12.250Z,35.69
2022-12-29T03:18:12.205Z,34.46
2022-12-29T03:19:12.205Z,34.45
2022-12-29T03:20:12.207Z,33.02
2022-12-29T03:21:12.235Z,31.79
2022-12-29T03:22:12.203Z,33.27
2022-12-29T03:23:12.185Z,32.70
2022-12-29T03:24:12.193Z,32.24
2022-12-29T03:25:12.183Z,28.96
2022-12-29T03:26:12.214Z,33.17
2022-12-29T03:27:12.204Z,33.09
2022-12-29T03:28:12.188Z,36.47
2022-12-29T03:29:12.186Z,34.93
2022-12-29T03:30:12.198Z,33.26
2022-12-29T03:31:12.214Z,32.97
2022-12-29T03:32:12.170Z,31.88
2022-12-29T03:33:12.159Z,32.78
2022-12-29T03:34:12.159Z,36.18
2022-12-29T03:35:12.184Z,33.77
2022-12-29T03:36:12.175Z,36.79
2022-12-29T03:37:12.200Z,36.64
2022-12-29T03:38:12.164Z,33.83
2022-12-29T03:39:12.179Z,36.13
2022-12-29T03:40:12.150Z,35.55
2022-12-29T03:41:12.184Z,34.80
2022-12-29T03:42:12.152Z,35.15
2022-12-29T03:43:12.154Z,31.35
2022-12-29T03:44:12.146Z,32.68
2022-12-29T03:45:12.146Z,32.64
2022-12-29T03:46:12.244Z,34.51
2022-12-29T03:47:12.175Z,37.72
2022-12-29T03:48:12.136Z,35.07
2022-12-29T03:49:12.125Z,33.63
2022-12-29T03:50:12.124Z,32.34
2022-12-29T03:51:12.142Z,36.44
2022-12-29T03:52:12.120Z,33.68
2022-12-29T03:53:12.143Z,29.05
2022-12-29T03:54:12.108Z,30.08
2022-12-29T03:55:12.098Z,32.45
2022-12-29T03:56:12.100Z,33.12
2022-12-29T03:57:12.101Z,33.15
2022-12-29T03:58:12.099Z,32.54
2022-12-29T03:59:12.092Z,34.43
2022-12-29T04:00:12.077Z,33.96
2022-12-29T04:01:12.123Z,35.17
2022-12-29T04:02:12.261Z,35.09
2022-12-29T04:03:12.184Z,34.97
2022-12-29T04:04:12.054Z,31.22
2022-12-29T04:05:12.073Z,35.17
2022-12-29T04:06:12.066Z,33.35
2022-12-29T04:07:12.048Z,31.83
2022-12-29T04:08:12.040Z,29.32
2022-12-29T04:09:12.060Z,31.45
2022-12-29T04:10:12.035Z,33.86
2022-12-29T04:11:12.052Z,31.60
2022-12-29T04:12:12.087Z,30.93
2022-12-29T04:13:12.027Z,29.79
2022-12-29T04:14:12.030Z,30.06
2022-12-29T04:15:12.060Z,30.50
2022-12-29T04:16:12.148Z,29.00
2022-12-29T04:17:12.022Z,30.06
2022-12-29T04:18:12.074Z,32.81
2022-12-29T04:19:12.022Z,30.90
2022-12-29T04:20:12.027Z,31.31
2022-12-29T04:21:12.041Z,31.06
2022-12-29T04:22:12.013Z,30.78
2022-12-29T04:23:12.024Z,31.47
2022-12-29T04:24:11.992Z,33.28
2022-12-29T04:25:11.992Z,32.11
2022-12-29T04:26:11.983Z,29.05
2022-12-29T04:27:12.011Z,27.93
2022-12-29T04:28:11.987Z,31.93
2022-12-29T04:29:11.992Z,37.26
2022-12-29T04:30:11.984Z,34.45
2022-12-29T04:31:12.030Z,38.95
2022-12-29T04:32:12.000Z,46.20
2022-12-29T04:33:11.966Z,45.25
2022-12-29T04:34:11.974Z,45.60
2022-12-29T04:35:11.973Z,48.58
2022-12-29T04:36:11.973Z,51.34
2022-12-29T04:37:11.979Z,52.63
2022-12-29T04:38:11.983Z,53.39
2022-12-29T04:39:11.979Z,55.22
2022-12-29T04:40:11.964Z,58.40
2022-12-29T04:41:11.966Z,62.35
2022-12-29T04:42:11.969Z,64.99
2022-12-29T04:43:11.967Z,64.55
2022-12-29T04:44:11.967Z,68.31
2022-12-29T04:45:11.953Z,69.22
2022-12-29T04:46:12.037Z,69.02
2022-12-29T04:47:12.022Z,70.18
2022-12-29T04:48:11.952Z,70.19
2022-12-29T04:49:11.971Z,72.72
2022-12-29T04:50:11.987Z,71.93
2022-12-29T04:51:11.974Z,76.45
2022-12-29T04:52:11.956Z,73.80
2022-12-29T04:53:11.947Z,74.94
2022-12-29T04:54:11.940Z,78.66
2022-12-29T04:55:11.950Z,78.88
2022-12-29T04:56:11.947Z,79.40
2022-12-29T04:57:11.936Z,78.76
2022-12-29T04:58:15.135Z,79.16
2022-12-29T04:59:12.946Z,79.39
2022-12-29T05:00:11.935Z,79.54
2022-12-29T05:01:11.935Z,80.47
2022-12-29T05:02:12.120Z,83.00
2022-12-29T05:03:12.060Z,86.58
2022-12-29T05:04:11.931Z,90.55
2022-12-29T05:05:11.938Z,93.50
2022-12-29T05:06:11.935Z,90.37
2022-12-29T05:07:11.932Z,90.37
2022-12-29T05:08:11.917Z,93.60
2022-12-29T05:09:11.912Z,94.92
2022-12-29T05:10:11.912Z,92.23
2022-12-29T05:11:11.908Z,96.62
2022-12-29T05:12:11.915Z,98.96
2022-12-29T05:13:11.898Z,93.15
2022-12-29T05:14:11.919Z,89.57
2022-12-29T05:15:11.928Z,90.66
2022-12-29T05:16:11.945Z,85.34
2022-12-29T05:17:11.888Z,84.79
2022-12-29T05:18:11.889Z,81.74
2022-12-29T05:19:11.901Z,76.99
2022-12-29T05:20:11.887Z,78.23
2022-12-29T05:21:11.901Z,74.03
2022-12-29T05:22:11.899Z,71.78
2022-12-29T05:23:11.895Z,69.26
2022-12-29T05:24:11.906Z,66.64
2022-12-29T05:25:11.885Z,66.65
2022-12-29T05:26:11.890Z,62.85
2022-12-29T05:27:11.901Z,62.89
2022-12-29T05:28:11.903Z,61.07
2022-12-29T05:29:11.871Z,59.09
2022-12-29T05:30:11.879Z,60.54
2022-12-29T05:31:11.894Z,62.15
2022-12-29T05:32:11.862Z,57.30
2022-12-29T05:33:11.875Z,55.67
2022-12-29T05:34:11.868Z,63.38
2022-12-29T05:35:11.858Z,58.10
2022-12-29T05:36:11.857Z,57.83
2022-12-29T05:37:11.849Z,58.55
2022-12-29T05:38:11.854Z,55.26
2022-12-29T05:39:11.858Z,58.33
2022-12-29T05:40:11.848Z,55.46
2022-12-29T05:41:11.880Z,57.17
2022-12-29T05:42:11.835Z,60.05
2022-12-29T05:43:11.836Z,53.49
2022-12-29T05:44:11.834Z,52.65
2022-12-29T05:45:11.821Z,55.91
2022-12-29T05:46:11.843Z,51.82
2022-12-29T05:47:11.855Z,50.84
2022-12-29T05:48:11.833Z,43.30
2022-12-29T05:49:11.804Z,46.71
2022-12-29T05:50:11.817Z,48.62
2022-12-29T05:51:11.807Z,45.34
2022-12-29T05:52:11.788Z,43.68
2022-12-29T05:53:11.788Z,48.99
2022-12-29T05:54:11.773Z,46.68
2022-12-29T05:55:11.783Z,46.71
2022-12-29T05:56:11.768Z,43.78
2022-12-29T05:57:11.777Z,44.47
2022-12-29T05:58:11.765Z,43.52
2022-12-29T05:59:11.790Z,44.85
2022-12-29T06:00:11.749Z,45.11
2022-12-29T06:01:11.735Z,44.97
2022-12-29T06:02:11.884Z,39.86
2022-12-29T06:03:11.882Z,39.81
2022-12-29T06:04:11.764Z,44.25
2022-12-29T06:05:11.728Z,42.06
2022-12-29T06:06:11.725Z,44.62
2022-12-29T06:07:11.719Z,42.95
2022-12-29T06:08:11.719Z,42.60
2022-12-29T06:09:11.707Z,43.67
2022-12-29T06:10:11.700Z,40.93
2022-12-29T06:11:11.700Z,38.97
2022-12-29T06:12:11.704Z,40.56
2022-12-29T06:13:11.704Z,39.93
2022-12-29T06:14:11.711Z,40.91
2022-12-29T06:15:11.672Z,40.12
2022-12-29T06:16:11.712Z,38.14
2022-12-29T06:17:11.677Z,40.29
2022-12-29T06:18:19.377Z,41.92
2022-12-29T06:19:12.682Z,42.26
2022-12-29T06:20:11.685Z,42.49
2022-12-29T06:21:11.670Z,42.31
2022-12-29T06:22:11.686Z,37.19
2022-12-29T06:23:11.690Z,40.31
2022-12-29T06:24:11.694Z,39.22
2022-12-29T06:25:11.685Z,39.37
2022-12-29T06:26:11.693Z,39.97
2022-12-29T06:27:11.684Z,40.41
2022-12-29T06:28:11.707Z,39.84
2022-12-29T06:29:11.689Z,42.29
2022-12-29T06:30:11.683Z,37.38
2022-12-29T06:31:11.753Z,42.25
2022-12-29T06:32:11.723Z,39.98
2022-12-29T06:33:11.689Z,44.78
2022-12-29T06:34:11.690Z,44.83
2022-12-29T06:35:11.676Z,42.81
2022-12-29T06:36:11.675Z,41.90
2022-12-29T06:37:11.677Z,39.38
2022-12-29T06:38:11.685Z,39.77
2022-12-29T06:39:11.668Z,44.39
2022-12-29T06:40:11.656Z,40.02
2022-12-29T06:41:11.673Z,40.84
2022-12-29T06:42:11.650Z,40.80
2022-12-29T06:43:11.633Z,40.40
2022-12-29T06:44:11.637Z,38.31
2022-12-29T06:45:11.627Z,33.38
2022-12-29T06:46:11.659Z,35.54
2022-12-29T06:47:11.631Z,40.87
2022-12-29T06:48:11.617Z,39.55
2022-12-29T06:49:11.635Z,40.15
2022-12-29T06:50:11.599Z,34.59
2022-12-29T06:51:11.593Z,36.85
2022-12-29T06:52:13.258Z,39.55
2022-12-29T06:53:11.580Z,41.74
2022-12-29T06:54:11.588Z,36.07
2022-12-29T06:55:11.576Z,37.56
2022-12-29T06:56:11.575Z,37.88
2022-12-29T06:57:11.570Z,37.28
2022-12-29T06:58:11.576Z,35.96
2022-12-29T06:59:11.557Z,34.45
2022-12-29T07:00:11.561Z,34.63
2022-12-29T07:01:11.611Z,35.17
2022-12-29T07:02:11.921Z,34.67
2022-12-29T07:03:11.604Z,35.35
2022-12-29T07:04:11.535Z,38.39
2022-12-29T07:05:11.524Z,39.07
2022-12-29T07:06:11.526Z,38.92
2022-12-29T07:07:11.526Z,39.78
2022-12-29T07:08:11.530Z,36.43
2022-12-29T07:09:11.512Z,35.74
2022-12-29T07:10:11.502Z,36.47
2022-12-29T07:11:11.506Z,36.16
2022-12-29T07:12:11.521Z,36.82
2022-12-29T07:13:11.508Z,34.50
2022-12-29T07:14:11.497Z,36.94
2022-12-29T07:15:11.496Z,33.40
2022-12-29T07:16:11.567Z,38.85
2022-12-29T07:17:11.596Z,36.53
2022-12-29T07:18:11.490Z,34.51
2022-12-29T07:19:11.507Z,38.22
2022-12-29T07:20:11.487Z,36.90
2022-12-29T07:21:11.474Z,35.86
2022-12-29T07:22:11.475Z,36.96
2022-12-29T07:23:11.458Z,36.75
2022-12-29T07:24:11.465Z,33.52
2022-12-29T07:25:11.446Z,36.97
2022-12-29T07:26:11.448Z,37.03
2022-12-29T07:27:11.436Z,37.17
2022-12-29T07:28:11.434Z,37.27
2022-12-29T07:29:11.446Z,37.54
2022-12-29T07:30:11.426Z,37.25
2022-12-29T07:31:11.420Z,39.30
2022-12-29T07:32:11.437Z,36.36
2022-12-29T07:33:11.403Z,38.67
2022-12-29T07:34:11.396Z,34.39
2022-12-29T07:35:11.392Z,32.89
2022-12-29T07:36:11.385Z,38.36
2022-12-29T07:37:11.402Z,33.94
2022-12-29T07:38:11.389Z,36.47
2022-12-29T07:39:11.373Z,35.78
2022-12-29T07:40:11.424Z,37.88
2022-12-29T07:41:11.369Z,38.01
2022-12-29T07:42:11.360Z,37.90
2022-12-29T07:43:11.357Z,37.59
2022-12-29T07:44:11.355Z,38.59
2022-12-29T07:45:11.368Z,39.97
2022-12-29T07:46:19.030Z,41.10
2022-12-29T07:47:12.364Z,41.18
2022-12-29T07:48:11.371Z,41.17
2022-12-29T07:49:11.330Z,38.98
2022-12-29T07:50:11.363Z,39.37
2022-12-29T07:51:11.320Z,37.09
2022-12-29T07:52:11.316Z,39.18
2022-12-29T07:53:11.305Z,39.44
2022-12-29T07:54:11.315Z,37.57
2022-12-29T07:55:11.307Z,39.14
2022-12-29T07:56:11.303Z,39.50
2022-12-29T07:57:11.288Z,40.29
2022-12-29T07:58:11.296Z,36.60
2022-12-29T07:59:11.279Z,35.84
2022-12-29T08:00:11.290Z,37.07
2022-12-29T08:01:11.303Z,39.35
2022-12-29T08:02:11.444Z,39.68
2022-12-29T08:03:11.270Z,39.14
2022-12-29T08:04:11.277Z,35.15
2022-12-29T08:05:11.257Z,34.25
2022-12-29T08:06:11.259Z,36.30
2022-12-29T08:07:11.260Z,33.85
2022-12-29T08:08:11.240Z,35.91
2022-12-29T08:09:16.377Z,36.99
2022-12-29T08:10:12.238Z,37.20
2022-12-29T08:11:11.237Z,37.17
2022-12-29T08:12:11.235Z,37.98
2022-12-29T08:13:11.236Z,37.87
2022-12-29T08:14:11.222Z,44.81
2022-12-29T08:15:11.218Z,45.01
2022-12-29T08:16:11.306Z,44.19
2022-12-29T08:17:11.208Z,44.07
2022-12-29T08:18:11.217Z,38.63
2022-12-29T08:19:11.201Z,39.56
2022-12-29T08:20:11.201Z,46.25
2022-12-29T08:21:11.191Z,42.21
2022-12-29T08:22:11.189Z,47.73
2022-12-29T08:23:11.196Z,46.30
2022-12-29T08:24:11.203Z,47.20
2022-12-29T08:25:11.191Z,47.52
2022-12-29T08:26:11.199Z,43.67
2022-12-29T08:27:18.119Z,45.48
2022-12-29T08:28:12.176Z,45.76
2022-12-29T08:29:11.170Z,45.55
2022-12-29T08:30:11.180Z,46.04
2022-12-29T08:31:11.226Z,46.96
2022-12-29T08:32:11.174Z,44.76
2022-12-29T08:33:11.153Z,46.17
2022-12-29T08:34:11.173Z,45.12
2022-12-29T08:35:11.165Z,44.52
2022-12-29T08:36:11.147Z,44.49
2022-12-29T08:37:11.136Z,42.25
2022-12-29T08:38:11.141Z,43.45
2022-12-29T08:39:11.135Z,44.33
2022-12-29T08:40:11.146Z,42.94
2022-12-29T08:41:11.124Z,40.66
2022-12-29T08:42:11.124Z,46.73
2022-12-29T08:43:11.146Z,44.64
2022-12-29T08:44:11.132Z,47.25
2022-12-29T08:45:11.163Z,46.42
2022-12-29T08:46:11.164Z,45.48
2022-12-29T08:47:11.154Z,45.28
2022-12-29T08:48:11.106Z,45.92
2022-12-29T08:49:11.104Z,46.57
2022-12-29T08:50:11.129Z,48.24
2022-12-29T08:51:11.101Z,52.14
2022-12-29T08:52:11.104Z,49.24
2022-12-29T08:53:11.087Z,48.61
2022-12-29T08:54:11.100Z,48.91
2022-12-29T08:55:11.068Z,52.64
2022-12-29T08:56:11.079Z,52.68
2022-12-29T08:57:11.077Z,49.85
2022-12-29T08:58:11.053Z,50.37
2022-12-29T09:48:11.114Z,76.21
2022-12-29T13:06:05.024Z,68.66
2022-12-29T13:07:04.989Z,68.66
2022-12-29T13:08:04.969Z,64.50
2022-12-29T13:09:04.957Z,65.39
2022-12-29T13:10:04.938Z,68.43
2022-12-29T13:11:04.910Z,58.33
2022-12-29T13:12:04.874Z,61.20
2022-12-29T13:13:04.925Z,66.42
2022-12-29T13:14:04.820Z,61.46
2022-12-29T13:15:04.803Z,61.58
2022-12-29T13:16:07.444Z,61.56
2022-12-29T13:17:05.751Z,61.52
2022-12-29T13:18:04.718Z,61.55
2022-12-29T13:19:04.694Z,57.21
2022-12-29T13:20:04.663Z,55.55
2022-12-29T13:21:04.640Z,55.87
2022-12-29T13:22:06.888Z,68.92
2022-12-29T13:23:04.592Z,67.21
2022-12-29T13:24:04.570Z,67.04
2022-12-29T13:25:04.551Z,56.47
2022-12-29T13:26:04.524Z,62.66
2022-12-29T13:27:04.489Z,68.25
2022-12-29T13:28:04.470Z,66.71
2022-12-29T13:29:04.442Z,60.54
2022-12-29T13:30:04.439Z,52.57
2022-12-29T13:31:04.487Z,60.22
2022-12-29T13:32:04.364Z,65.61
2022-12-29T13:33:04.342Z,57.30
2022-12-29T13:34:04.314Z,45.44
2022-12-29T13:35:04.289Z,52.19
2022-12-29T13:36:04.270Z,45.35
2022-12-29T13:37:04.241Z,39.15
2022-12-29T13:38:04.232Z,31.50
2022-12-29T13:39:04.185Z,48.10
2022-12-29T13:40:04.167Z,37.58
2022-12-29T13:41:04.119Z,46.90
2022-12-29T13:42:04.107Z,69.10
2022-12-29T13:43:04.078Z,49.95
2022-12-29T13:44:04.056Z,35.48
2022-12-29T13:45:04.025Z,32.59
2022-12-29T13:46:04.088Z,30.58
2022-12-29T13:47:03.988Z,25.00
2022-12-29T13:48:03.945Z,46.71
2022-12-29T13:49:03.916Z,28.76
2022-12-29T13:50:03.891Z,39.32
2022-12-29T13:51:03.905Z,30.05
2022-12-29T13:52:03.845Z,30.33
2022-12-29T13:53:03.824Z,28.03
2022-12-29T13:54:03.807Z,26.50
2022-12-29T13:55:03.786Z,28.81
2022-12-29T13:56:03.770Z,37.85
2022-12-29T13:57:03.728Z,35.96
2022-12-29T13:58:03.704Z,37.25
2022-12-29T13:59:03.689Z,33.52
2022-12-29T14:00:03.676Z,29.55
2022-12-29T14:01:03.640Z,29.66
2022-12-29T14:02:03.801Z,29.92
2022-12-29T14:03:03.745Z,27.51
2022-12-29T14:04:03.616Z,31.14
2022-12-29T14:05:03.555Z,29.18
2022-12-29T14:06:03.516Z,31.52
2022-12-29T14:07:03.493Z,29.34
2022-12-29T14:08:03.477Z,31.91
2022-12-29T14:09:03.464Z,25.18
2022-12-29T14:10:03.441Z,26.56
2022-12-29T14:11:03.406Z,25.79
2022-12-29T14:12:03.381Z,28.29
2022-12-29T14:13:03.360Z,30.85
2022-12-29T14:14:03.334Z,32.63
2022-12-29T14:15:03.311Z,32.51
2022-12-29T14:16:03.361Z,33.14
2022-12-29T14:17:03.313Z,30.29
2022-12-29T14:18:03.266Z,28.11
2022-12-29T14:19:03.230Z,33.40
2022-12-29T14:20:03.211Z,29.37
2022-12-29T14:21:03.195Z,32.16
2022-12-29T14:22:03.179Z,30.13
2022-12-29T14:23:03.161Z,30.23
2022-12-29T14:24:03.150Z,26.88
2022-12-29T14:25:03.130Z,30.42
2022-12-29T14:26:03.127Z,27.96
2022-12-29T14:27:03.097Z,24.94
2022-12-29T14:28:03.078Z,25.86
2022-12-29T14:29:05.196Z,27.84
2022-12-29T14:30:03.050Z,30.53
2022-12-29T14:31:03.093Z,31.17
2022-12-29T14:32:03.016Z,30.87
2022-12-29T14:33:03.022Z,25.00
2022-12-29T14:34:02.979Z,27.87
2022-12-29T14:35:02.955Z,29.05
2022-12-29T14:36:02.935Z,27.93
2022-12-29T14:37:02.924Z,25.00
2022-12-29T14:38:02.901Z,26.38
2022-12-29T14:39:02.866Z,25.60
2022-12-29T14:40:02.867Z,31.72
2022-12-29T14:41:07.564Z,30.26
2022-12-29T14:43:02.805Z,30.39
2022-12-29T14:44:02.794Z,28.43
2022-12-29T14:45:02.771Z,31.18
2022-12-29T14:46:02.780Z,29.56
2022-12-29T14:47:02.757Z,30.11
2022-12-29T14:48:02.718Z,31.47
2022-12-29T14:49:02.704Z,30.10
2022-12-29T14:50:02.700Z,30.75
2022-12-29T14:51:02.670Z,28.50
2022-12-29T14:52:02.666Z,29.99
2022-12-29T14:53:04.489Z,30.37
2022-12-29T14:54:02.628Z,26.56
2022-12-29T14:55:02.617Z,26.40
2022-12-29T14:56:02.652Z,31.52
2022-12-29T14:57:02.594Z,33.71
2022-12-29T14:58:02.577Z,32.72
2022-12-29T14:59:02.554Z,35.15
2022-12-29T15:00:02.539Z,36.02
2022-12-29T15:01:02.571Z,34.68
2022-12-29T15:02:02.576Z,38.44
2022-12-29T15:03:02.656Z,37.31
2022-12-29T15:04:02.471Z,37.08
2022-12-29T15:05:02.446Z,35.94
2022-12-29T15:06:07.647Z,31.87
2022-12-29T15:08:02.396Z,32.54
2022-12-29T15:09:02.367Z,33.82
2022-12-29T15:40:01.869Z,41.97
2022-12-29T15:41:01.855Z,41.92
2022-12-29T15:42:01.868Z,42.70
2022-12-29T15:43:01.855Z,43.25
2022-12-29T15:44:01.833Z,46.31
2022-12-29T15:45:10.625Z,42.38
2022-12-29T15:46:02.880Z,42.59
2022-12-29T15:47:01.785Z,43.28
2022-12-29T15:48:01.792Z,43.11
2022-12-29T15:49:01.763Z,42.99
2022-12-29T15:50:01.768Z,42.55
2022-12-29T15:51:01.741Z,46.49
2022-12-29T15:52:01.754Z,47.50
2022-12-29T15:53:01.720Z,46.84
2022-12-29T15:54:01.709Z,46.78
2022-12-29T15:55:01.718Z,48.81
2022-12-29T15:56:03.745Z,46.89
2022-12-29T15:57:01.681Z,46.04
2022-12-29T15:58:01.710Z,44.98
2022-12-29T15:59:01.652Z,45.08
2022-12-29T16:00:01.638Z,43.82
2022-12-29T16:01:01.685Z,45.75
2022-12-29T16:02:04.840Z,48.44
2022-12-29T16:03:02.700Z,48.56
2022-12-29T16:04:01.643Z,48.28
2022-12-29T16:05:17.099Z,48.00
2022-12-29T16:06:02.589Z,48.64
2022-12-29T16:07:01.563Z,47.56
2022-12-29T16:08:01.586Z,49.14
2022-12-29T16:09:01.564Z,50.03
2022-12-29T16:10:01.556Z,48.31
2022-12-29T16:11:01.556Z,43.21
2022-12-29T16:12:01.544Z,44.97
2022-12-29T16:13:01.517Z,47.51
2022-12-29T16:14:01.504Z,50.43
2022-12-29T16:15:01.502Z,52.20
2022-12-29T16:16:01.593Z,50.00
2022-12-29T16:17:01.565Z,53.77
2022-12-29T16:18:01.504Z,50.30
2022-12-29T16:19:01.484Z,45.36
2022-12-29T16:20:01.496Z,49.11
2022-12-29T16:21:01.457Z,51.77
2022-12-29T16:22:01.448Z,51.09
2022-12-29T16:23:01.444Z,52.77
2022-12-29T16:24:01.445Z,47.49
2022-12-29T16:25:04.944Z,48.99
2022-12-29T16:26:01.414Z,49.21
2022-12-29T16:27:01.392Z,49.21
2022-12-29T16:28:01.407Z,49.35
2022-12-29T16:29:01.388Z,46.99
2022-12-29T16:30:01.373Z,49.17
2022-12-29T16:31:01.439Z,48.25
2022-12-29T16:32:01.919Z,49.45
2022-12-29T16:33:01.344Z,49.74
2022-12-29T16:34:01.332Z,49.11
2022-12-29T16:35:01.311Z,42.72
2022-12-29T16:36:01.328Z,47.12
2022-12-29T16:37:01.285Z,48.89
2022-12-29T16:38:01.268Z,47.76
2022-12-29T16:39:01.266Z,46.92
2022-12-29T16:40:01.347Z,44.43
2022-12-29T16:41:01.242Z,43.76
2022-12-29T16:42:01.237Z,44.36
2022-12-29T16:43:01.223Z,46.85
2022-12-29T16:44:01.219Z,44.95
2022-12-29T16:45:01.209Z,50.49
2022-12-29T16:46:01.228Z,45.45
2022-12-29T16:47:01.178Z,41.41
2022-12-29T16:48:01.167Z,44.29
2022-12-29T16:49:01.166Z,46.26
2022-12-29T16:50:01.232Z,45.52
2022-12-29T16:51:01.138Z,46.05
2022-12-29T16:52:01.122Z,47.01
2022-12-29T16:53:01.130Z,46.77
2022-12-29T16:54:01.101Z,52.66
2022-12-29T16:55:01.121Z,50.53
2022-12-29T16:56:01.080Z,47.71
2022-12-29T16:57:01.077Z,48.11
2022-12-29T16:58:01.061Z,46.67
2022-12-29T16:59:01.055Z,45.56
2022-12-29T20:02:00.543Z,60.59
2022-12-29T20:03:00.525Z,57.98
2022-12-29T20:04:00.389Z,59.07
2022-12-29T20:05:00.389Z,59.34
2022-12-29T20:19:00.425Z,61.11
2022-12-29T20:26:00.436Z,63.51
2022-12-29T20:34:00.445Z,63.94
